04W

Field of Dreams Airport

Hinckley, Minnesota, USA
METAR K04W 260555Z AUTO 00000KT 10SM CLR 03/M02 A2991 RMK AO2
Observed Flight Rules
Apr-26 @ 05:55 UTC (6 minutes ago) Visual Flight Rules
Visibility Clouds
10 miles
  • Clear skies
Temperatures Readings
Current 3°C / 37°F
Dewpoint -2°C / 28°F
Humidity 70%
Altimeter 29.91" Hg
Pressure 1013 hPa
Elevation 311
METAR K04W 260555Z AUTO 00000KT 10SM CLR 03/M02 A2991 RMK AO2
Observed Flight Rules
Apr-26 @ 05:55 UTC
(6 minutes ago)
VFR
Clouds
  • Clear skies
Temperature Dewpoint
3°C / 37°F -2°C / 28°F
Humidity Altimeter Pressure
70% 29.91" Hg 1013 hPa